Terminal Aerodrome Forecast
Issued by NWS

Current Version | Previous Version | Text Only | Print | Product List | Glossary On
Versions: 1 2 3 4 5 6 7 8 9 10 11 12 13 14 15 16 17 18 19
000
FTAK31 PANC 190112 AAB
TAFADU
TAF AMD
PADU 190112Z 1901/1924 21014G22KT P6SM -SHRA SCT025 BKN040
      TEMPO 1901/1902 SCT015 BKN025
     FM190200 27015G25KT 3SM -SHRA BR SCT003 BKN007 OVC015
     FM191300 31030G50KT P6SM SCT007 BKN025 OVC050
     FM191700 30032G42KT P6SM SCT025 BKN050=

USA.gov is the U.S. government's official web portal to all federal, state and local government web resources and services.